Time;durP1;ratioP1;P1;durP2;ratioP2;P2;SDS_P1;SDS_P2;PMS_P1;PMS_P2;Temp;Humidity;BMP_temperature;BMP_pressure;BME280_temperature;BME280_humidity;BME280_pressure;Samples;Min_cycle;Max_cycle;Signal;HPM_P1;HPM_P2
2021/04/01 00:00:09;;;;;;;11.02;7.18;;;14.60;97.00;;;;;;5050401;28;20417;-69
2021/04/01 00:02:36;;;;;;;10.52;7.45;;;14.60;97.10;;;;;;5049218;28;20257;-69
2021/04/01 00:05:04;;;;;;;11.40;7.45;;;14.60;97.10;;;;;;5050096;28;20211;-69
2021/04/01 00:07:31;;;;;;;9.55;7.18;;;14.60;97.10;;;;;;5048979;28;20616;-69
2021/04/01 00:09:59;;;;;;;11.38;7.10;;;14.50;97.10;;;;;;5049589;28;20199;-69
2021/04/01 00:12:26;;;;;;;7.95;6.18;;;14.50;97.10;;;;;;5048915;28;20759;-69
2021/04/01 00:14:52;;;;;;;8.65;6.40;;;14.40;97.00;;;;;;5049912;28;20218;-69
2021/04/01 00:17:19;;;;;;;9.73;6.93;;;14.40;97.10;;;;;;5042998;28;20285;-69
2021/04/01 00:19:46;;;;;;;10.00;6.80;;;14.30;97.20;;;;;;5050802;28;20792;-69
2021/04/01 00:22:12;;;;;;;9.98;6.95;;;14.30;97.30;;;;;;5048899;28;20230;-69
2021/04/01 00:24:39;;;;;;;9.00;6.10;;;14.30;97.50;;;;;;5047124;28;20227;-69
2021/04/01 00:27:07;;;;;;;7.72;6.05;;;14.30;97.50;;;;;;5045599;28;20214;-69
2021/04/01 00:29:34;;;;;;;8.25;6.55;;;14.20;97.40;;;;;;5049778;28;20610;-69
2021/04/01 00:32:01;;;;;;;7.72;6.53;;;14.20;97.50;;;;;;5049531;28;20218;-70
2021/04/01 00:34:27;;;;;;;9.65;6.40;;;14.20;97.60;;;;;;5051008;28;20210;-69
2021/04/01 00:36:54;;;;;;;8.13;6.47;;;14.20;97.20;;;;;;5045264;28;20215;-69
2021/04/01 00:39:20;;;;;;;6.53;5.85;;;14.20;97.30;;;;;;5051495;28;20191;-69
2021/04/01 00:41:47;;;;;;;7.85;5.95;;;14.10;97.40;;;;;;5049182;28;20225;-69
2021/04/01 00:44:16;;;;;;;7.32;6.35;;;14.10;97.40;;;;;;5046071;28;20219;-69
2021/04/01 00:46:47;;;;;;;8.55;6.63;;;14.10;97.60;;;;;;5049463;28;20228;-69
2021/04/01 00:49:14;;;;;;;9.32;6.43;;;14.00;97.90;;;;;;5042595;28;20233;-69
2021/04/01 00:51:40;;;;;;;9.75;6.82;;;13.90;97.80;;;;;;5048969;28;20218;-69
2021/04/01 00:54:07;;;;;;;8.00;6.78;;;13.90;97.90;;;;;;5049505;28;20720;-69
2021/04/01 00:56:34;;;;;;;8.82;6.28;;;13.80;98.00;;;;;;5047319;28;20233;-69
2021/04/01 00:59:01;;;;;;;7.15;6.32;;;13.90;98.10;;;;;;5049635;28;20206;-69
2021/04/01 01:01:36;;;;;;;9.18;6.15;;;13.80;98.00;;;;;;5046352;28;20261;-69
2021/04/01 01:04:03;;;;;;;7.00;6.00;;;13.80;98.00;;;;;;5048412;28;20246;-69
2021/04/01 01:06:30;;;;;;;8.75;6.35;;;13.70;98.10;;;;;;5048974;28;20227;-69
2021/04/01 01:08:57;;;;;;;9.77;6.95;;;13.70;98.20;;;;;;5049579;28;20191;-69
2021/04/01 01:11:23;;;;;;;9.75;6.78;;;13.70;98.30;;;;;;5048707;28;20226;-69
2021/04/01 01:13:50;;;;;;;8.38;6.32;;;13.60;98.40;;;;;;5049360;28;20229;-69
2021/04/01 01:16:17;;;;;;;10.15;6.57;;;13.60;98.40;;;;;;5048173;28;20792;-68
2021/04/01 01:18:45;;;;;;;9.23;7.10;;;13.60;98.50;;;;;;5060169;28;20194;-69
2021/04/01 01:21:12;;;;;;;7.82;6.22;;;13.60;98.60;;;;;;5050303;28;20730;-69
2021/04/01 01:23:40;;;;;;;8.75;6.40;;;13.50;98.70;;;;;;5050337;28;20215;-69
2021/04/01 01:26:08;;;;;;;9.85;6.63;;;13.50;98.70;;;;;;5047649;28;20720;-69
2021/04/01 01:28:35;;;;;;;8.55;5.97;;;13.50;98.80;;;;;;5048852;28;20215;-69
2021/04/01 01:31:02;;;;;;;8.60;6.25;;;13.40;98.90;;;;;;5048166;28;20223;-69
2021/04/01 01:33:38;;;;;;;7.50;5.63;;;13.40;99.00;;;;;;5048448;28;20221;-69
2021/04/01 01:36:06;;;;;;;8.43;6.25;;;13.40;99.00;;;;;;5046640;28;20698;-69
2021/04/01 01:38:32;;;;;;;8.77;6.57;;;13.40;99.00;;;;;;5049050;28;20245;-69
2021/04/01 01:40:59;;;;;;;9.10;6.50;;;13.40;99.00;;;;;;5048658;28;20226;-69
2021/04/01 01:43:27;;;;;;;8.25;6.00;;;13.40;99.00;;;;;;5048123;28;20277;-69
2021/04/01 01:45:53;;;;;;;7.95;6.07;;;13.40;99.10;;;;;;5047028;28;20200;-69
2021/04/01 01:48:20;;;;;;;7.45;5.88;;;13.40;99.00;;;;;;5045347;28;20226;-69
2021/04/01 01:50:47;;;;;;;7.45;5.95;;;13.40;99.00;;;;;;5048333;28;20199;-69
2021/04/01 01:53:13;;;;;;;11.55;6.60;;;13.30;99.10;;;;;;5049665;28;20195;-69
2021/04/01 01:55:41;;;;;;;7.30;6.03;;;13.30;99.10;;;;;;5048594;28;20218;-69
2021/04/01 01:58:08;;;;;;;7.90;5.72;;;13.30;99.10;;;;;;5048433;28;20268;-67
2021/04/01 02:00:39;;;;;;;6.88;5.45;;;13.30;99.20;;;;;;5050638;28;20206;-67
2021/04/01 02:03:07;;;;;;;7.68;6.03;;;13.30;99.30;;;;;;5049014;28;20245;-66
2021/04/01 02:05:35;;;;;;;7.80;6.22;;;13.20;99.40;;;;;;5052476;28;20256;-66
2021/04/01 02:08:02;;;;;;;7.50;6.18;;;13.20;99.50;;;;;;5052205;28;20223;-66
2021/04/01 02:10:31;;;;;;;9.43;6.03;;;13.10;99.50;;;;;;5053355;28;20608;-66
2021/04/01 02:12:59;;;;;;;8.23;5.95;;;13.10;99.60;;;;;;5050223;28;20218;-66
2021/04/01 02:15:27;;;;;;;9.07;6.95;;;13.00;99.70;;;;;;5052893;28;20317;-69
2021/04/01 02:18:04;;;;;;;6.90;5.47;;;13.00;99.90;;;;;;5051895;28;20211;-67
2021/04/01 02:20:30;;;;;;;11.15;7.03;;;13.00;99.90;;;;;;5044082;28;20559;-67
2021/04/01 02:22:57;;;;;;;8.02;6.57;;;12.90;99.90;;;;;;5044747;28;20221;-67
2021/04/01 02:25:24;;;;;;;8.30;6.60;;;12.80;99.90;;;;;;5046165;28;20211;-67
2021/04/01 02:27:50;;;;;;;9.55;6.32;;;12.80;99.90;;;;;;5044098;28;20701;-67
2021/04/01 02:30:18;;;;;;;8.23;6.50;;;12.80;99.90;;;;;;5046989;28;20190;-67
2021/04/01 02:32:44;;;;;;;6.53;5.88;;;12.80;99.90;;;;;;5046836;28;20734;-67
2021/04/01 02:35:12;;;;;;;7.18;5.78;;;12.70;99.90;;;;;;5047265;28;20215;-67
2021/04/01 02:37:39;;;;;;;8.55;6.25;;;12.70;99.90;;;;;;5042448;28;20206;-67
2021/04/01 02:40:06;;;;;;;7.47;6.32;;;12.60;99.90;;;;;;5047988;28;20665;-66
2021/04/01 02:42:33;;;;;;;6.57;4.78;;;12.60;99.90;;;;;;5045101;28;20215;-67
2021/04/01 02:44:59;;;;;;;7.47;5.75;;;12.60;99.90;;;;;;5044227;28;20222;-67
2021/04/01 02:47:26;;;;;;;7.07;5.38;;;12.60;99.90;;;;;;5045607;28;20219;-67
2021/04/01 02:49:52;;;;;;;6.05;5.20;;;12.60;99.90;;;;;;5050748;28;20571;-67
2021/04/01 02:52:20;;;;;;;6.80;5.13;;;12.60;99.90;;;;;;5048008;28;20214;-67
2021/04/01 02:54:46;;;;;;;7.43;5.88;;;12.50;99.90;;;;;;5047097;28;20758;-67
2021/04/01 02:57:14;;;;;;;7.35;5.88;;;12.50;99.90;;;;;;5045997;28;20221;-67
2021/04/01 02:59:41;;;;;;;7.20;5.60;;;12.50;99.90;;;;;;5049302;28;20697;-67
2021/04/01 03:02:09;;;;;;;6.30;5.07;;;12.50;99.90;;;;;;5047449;28;20271;-66
2021/04/01 03:04:36;;;;;;;6.40;5.43;;;12.50;99.90;;;;;;5046285;28;20218;-67
2021/04/01 03:07:03;;;;;;;6.05;5.45;;;12.40;99.90;;;;;;5047055;28;20322;-67
2021/04/01 03:09:30;;;;;;;7.15;5.63;;;12.40;99.90;;;;;;5047922;28;20606;-67
2021/04/01 03:11:57;;;;;;;6.25;5.55;;;12.40;99.90;;;;;;5047413;28;20218;-67
2021/04/01 03:14:23;;;;;;;5.32;4.80;;;12.40;99.90;;;;;;5045730;28;20230;-67
2021/04/01 03:16:50;;;;;;;5.80;5.07;;;12.40;99.90;;;;;;5046585;28;20215;-67
2021/04/01 03:19:16;;;;;;;6.45;5.25;;;12.30;99.90;;;;;;5040510;28;20533;-66
2021/04/01 03:21:45;;;;;;;5.85;5.22;;;12.30;99.90;;;;;;5048284;28;20334;-67
2021/04/01 03:24:12;;;;;;;6.70;4.85;;;12.30;99.90;;;;;;5046860;28;20222;-67
2021/04/01 03:26:40;;;;;;;6.13;5.38;;;12.20;99.90;;;;;;5046507;28;20230;-67
2021/04/01 03:29:07;;;;;;;7.78;5.53;;;12.20;99.90;;;;;;5047039;28;20206;-67
2021/04/01 03:31:34;;;;;;;7.78;5.35;;;12.20;99.90;;;;;;5046515;28;20261;-67
2021/04/01 03:34:01;;;;;;;6.10;5.25;;;12.10;99.90;;;;;;5050268;28;20237;-67
2021/04/01 03:36:27;;;;;;;7.32;5.28;;;12.10;99.90;;;;;;5050438;28;20226;-67
2021/04/01 03:38:55;;;;;;;5.38;4.80;;;12.10;99.90;;;;;;5050815;28;20285;-67
2021/04/01 03:41:21;;;;;;;6.78;5.05;;;12.10;99.90;;;;;;5052098;28;20575;-66
2021/04/01 03:43:49;;;;;;;7.75;5.03;;;12.10;99.90;;;;;;5049454;28;20215;-67
2021/04/01 03:46:16;;;;;;;7.28;5.25;;;12.10;99.90;;;;;;5045830;28;20493;-67
2021/04/01 03:48:42;;;;;;;6.90;4.97;;;12.10;99.90;;;;;;5049433;28;20219;-67
2021/04/01 03:51:09;;;;;;;5.72;4.82;;;12.10;99.90;;;;;;5051813;28;20218;-67
2021/04/01 03:53:35;;;;;;;4.88;4.13;;;12.10;99.90;;;;;;5051255;28;20211;-67
2021/04/01 03:56:02;;;;;;;5.68;4.82;;;12.10;99.90;;;;;;5048729;28;20195;-67
2021/04/01 03:58:54;;;;;;;5.25;4.75;;;12.10;99.90;;;;;;5048290;28;20211;-67
2021/04/01 04:01:51;;;;;;;6.80;5.60;;;12.10;99.90;;;;;;5048115;28;20248;-69
2021/04/01 04:04:32;;;;;;;5.55;4.90;;;12.00;99.90;;;;;;5049124;28;20249;-67
2021/04/01 04:09:57;;;;;;;6.22;4.85;;;11.90;99.90;;;;;;5049821;28;20213;-66
2021/04/01 04:12:39;;;;;;;5.47;4.78;;;11.80;99.90;;;;;;5042745;28;20225;-67
2021/04/01 04:15:09;;;;;;;5.18;4.40;;;11.70;99.90;;;;;;5049924;28;20230;-68
2021/04/01 04:17:36;;;;;;;4.50;4.07;;;11.70;99.90;;;;;;5047558;28;20219;-67
2021/04/01 04:20:04;;;;;;;5.18;4.28;;;11.60;99.90;;;;;;5050125;28;20202;-67
2021/04/01 04:22:31;;;;;;;6.32;4.70;;;11.60;99.90;;;;;;5048775;28;20698;-67
2021/04/01 04:24:58;;;;;;;5.65;4.90;;;11.60;99.90;;;;;;5049404;28;20215;-67
2021/04/01 04:27:43;;;;;;;4.93;4.43;;;11.60;99.90;;;;;;5046475;28;20272;-67
2021/04/01 04:30:11;;;;;;;5.50;5.00;;;11.50;99.90;;;;;;5050581;28;20207;-67
2021/04/01 04:32:38;;;;;;;6.03;4.78;;;11.50;99.90;;;;;;5048566;28;20240;-68
2021/04/01 04:35:06;;;;;;;5.13;4.63;;;11.50;99.90;;;;;;5050889;28;20242;-67
2021/04/01 04:37:33;;;;;;;5.03;4.50;;;11.50;99.90;;;;;;5049874;28;20622;-67
2021/04/01 04:39:59;;;;;;;5.47;4.68;;;11.50;99.90;;;;;;5050306;28;20199;-67
2021/04/01 04:42:26;;;;;;;5.20;4.70;;;11.50;99.90;;;;;;5044043;28;20268;-67
2021/04/01 04:44:52;;;;;;;5.68;4.30;;;11.50;99.90;;;;;;5040179;28;20234;-67
2021/04/01 04:47:19;;;;;;;5.68;5.18;;;11.50;99.90;;;;;;5050607;28;20619;-67
2021/04/01 04:49:47;;;;;;;5.07;4.57;;;11.60;99.90;;;;;;5050601;28;20214;-67
2021/04/01 04:52:13;;;;;;;4.78;4.38;;;11.50;99.90;;;;;;5047158;28;20214;-67
2021/04/01 04:54:41;;;;;;;4.80;4.30;;;11.60;99.90;;;;;;5044143;28;20281;-67
2021/04/01 04:57:14;;;;;;;6.93;5.47;;;11.60;99.90;;;;;;5044883;28;20782;-67
2021/04/01 04:59:46;;;;;;;7.05;5.82;;;11.50;99.90;;;;;;5046364;28;20198;-67
2021/04/01 05:04:59;;;;;;;4.88;4.38;;;11.50;99.90;;;;;;5049503;28;20213;-68
2021/04/01 05:07:25;;;;;;;5.30;4.80;;;11.50;99.90;;;;;;5047264;28;20219;-67
2021/04/01 05:09:52;;;;;;;6.32;4.82;;;11.50;99.90;;;;;;5046275;28;20542;-67
2021/04/01 05:12:19;;;;;;;5.90;4.82;;;11.50;99.90;;;;;;5047795;28;20223;-67
2021/04/01 05:14:45;;;;;;;5.05;4.45;;;11.50;99.90;;;;;;5089091;22;20741;-85
2021/04/01 05:17:16;;;;;;;5.15;4.60;;;11.50;99.90;;;;;;5086696;28;20213;-87
2021/04/01 05:19:43;;;;;;;4.95;4.22;;;11.60;99.90;;;;;;5086467;28;20202;-85
2021/04/01 05:22:14;;;;;;;4.93;4.43;;;11.60;99.90;;;;;;5086699;28;20324;-84
2021/04/01 05:24:41;;;;;;;4.65;4.25;;;11.60;99.90;;;;;;5083048;28;20213;-86
2021/04/01 05:27:22;;;;;;;5.43;4.93;;;11.70;99.90;;;;;;5088234;28;20233;-86
2021/04/01 05:29:58;;;;;;;6.30;5.07;;;11.70;99.90;;;;;;5090167;28;20201;-86
2021/04/01 05:32:25;;;;;;;5.20;4.70;;;11.70;99.90;;;;;;5088430;28;20221;-86
2021/04/01 05:34:52;;;;;;;5.20;4.53;;;11.80;99.90;;;;;;5087279;28;20208;-86
2021/04/01 05:37:20;;;;;;;4.88;4.43;;;12.00;99.90;;;;;;5065573;28;20213;-87
2021/04/01 05:39:49;;;;;;;4.47;4.07;;;12.20;99.90;;;;;;5086969;28;20197;-85
2021/04/01 05:42:17;;;;;;;7.30;4.78;;;12.50;99.90;;;;;;5086545;28;20748;-86
2021/04/01 05:44:46;;;;;;;8.25;4.85;;;12.70;99.90;;;;;;5090466;28;20201;-84
2021/04/01 05:47:17;;;;;;;7.65;5.15;;;12.90;99.90;;;;;;5086639;28;20253;-86
2021/04/01 05:49:59;;;;;;;6.47;5.25;;;13.20;99.90;;;;;;5084305;28;20204;-85
2021/04/01 05:53:07;;;;;;;7.15;5.55;;;13.40;99.90;;;;;;5085476;28;20213;-80
2021/04/01 06:01:41;;;;;;;4.75;4.35;;;13.90;99.90;;;;;;5071843;28;20205;-78
2021/04/01 06:04:18;;;;;;;8.00;5.43;;;14.00;99.90;;;;;;5063831;28;20222;-78
2021/04/01 06:06:52;;;;;;;5.53;5.00;;;13.90;99.90;;;;;;5062561;28;20208;-77
2021/04/01 06:09:23;;;;;;;7.93;5.25;;;13.80;99.90;;;;;;5065118;28;20289;-77
2021/04/01 06:11:53;;;;;;;5.18;4.63;;;13.90;99.90;;;;;;5063509;28;20255;-78
2021/04/01 06:14:44;;;;;;;5.68;4.97;;;14.20;99.90;;;;;;5064008;28;20210;-78
2021/04/01 06:17:11;;;;;;;5.63;5.10;;;14.50;99.90;;;;;;5057896;28;20720;-78
2021/04/01 06:19:38;;;;;;;4.68;4.28;;;14.90;99.90;;;;;;5062223;28;20222;-78
2021/04/01 06:22:07;;;;;;;5.97;5.38;;;15.20;99.60;;;;;;5059282;28;20190;-77
2021/04/01 06:24:37;;;;;;;7.50;5.53;;;15.50;99.40;;;;;;5066040;28;20202;-78
2021/04/01 06:27:12;;;;;;;6.22;4.93;;;15.50;99.30;;;;;;5058336;28;20214;-78
2021/04/01 06:29:41;;;;;;;7.50;5.68;;;15.50;99.40;;;;;;5065679;28;20194;-79
2021/04/01 06:32:20;;;;;;;6.82;5.03;;;15.70;99.90;;;;;;5063808;28;20197;-78
2021/04/01 06:34:49;;;;;;;5.95;5.22;;;15.70;99.60;;;;;;5057840;28;20295;-78
2021/04/01 06:37:31;;;;;;;6.15;4.90;;;15.60;99.50;;;;;;5066794;28;20213;-79
2021/04/01 06:40:05;;;;;;;5.20;4.70;;;15.50;99.60;;;;;;5066481;28;20194;-79
2021/04/01 06:42:48;;;;;;;6.70;5.45;;;15.50;99.50;;;;;;5073657;28;20222;-79
2021/04/01 06:45:19;;;;;;;6.45;5.78;;;15.60;99.50;;;;;;5065673;28;20208;-79
2021/04/01 06:47:49;;;;;;;6.63;5.63;;;15.80;99.50;;;;;;5060527;28;20222;-78
2021/04/01 06:50:22;;;;;;;6.57;5.45;;;16.00;99.20;;;;;;5061538;28;20287;-78
2021/04/01 06:52:56;;;;;;;6.53;5.28;;;16.10;98.90;;;;;;5060103;28;20218;-78
2021/04/01 06:55:28;;;;;;;5.57;4.85;;;16.20;98.90;;;;;;5056913;28;20221;-79
2021/04/01 06:58:08;;;;;;;6.45;5.70;;;16.20;98.80;;;;;;5061292;28;20217;-79
2021/04/01 07:00:50;;;;;;;7.18;5.13;;;16.20;98.80;;;;;;5058992;28;20692;-78
2021/04/01 07:03:20;;;;;;;10.98;5.78;;;16.30;98.80;;;;;;5055196;28;20375;-78
2021/04/01 07:05:51;;;;;;;8.18;6.30;;;16.30;98.50;;;;;;5056053;28;20972;-78
2021/04/01 07:08:25;;;;;;;7.43;5.40;;;16.10;98.70;;;;;;5057209;28;20236;-78
2021/04/01 07:10:58;;;;;;;8.13;5.63;;;16.30;98.80;;;;;;5057251;28;20741;-78
2021/04/01 07:13:29;;;;;;;6.53;5.88;;;16.30;98.70;;;;;;5059505;28;20225;-78
2021/04/01 07:16:02;;;;;;;10.05;5.47;;;16.50;98.90;;;;;;5057461;28;20206;-78
2021/04/01 07:18:39;;;;;;;9.05;5.50;;;16.80;98.70;;;;;;5056651;28;20217;-78
2021/04/01 07:46:40;;;;;;;6.70;5.60;;;17.00;97.10;;;;;;5059859;28;20221;-79
2021/04/01 07:49:16;;;;;;;7.18;5.35;;;17.30;97.10;;;;;;5059180;28;20711;-78
2021/04/01 07:51:58;;;;;;;9.02;5.90;;;17.70;96.70;;;;;;5057947;28;20260;-79
2021/04/01 07:57:32;;;;;;;6.75;5.75;;;18.40;96.00;;;;;;5023038;28;20199;-78
2021/04/01 08:00:09;;;;;;;6.07;5.47;;;18.50;95.40;;;;;;5059812;28;20272;-78
2021/04/01 08:03:01;;;;;;;8.50;5.40;;;18.70;95.30;;;;;;5058097;28;20194;-78
2021/04/01 08:05:29;;;;;;;7.70;5.20;;;19.00;95.30;;;;;;5058576;28;20224;-78
2021/04/01 08:07:58;;;;;;;8.60;5.57;;;19.40;95.10;;;;;;5057795;28;20222;-78
2021/04/01 08:10:27;;;;;;;10.80;6.10;;;19.40;94.60;;;;;;5054882;28;20230;-78
2021/04/01 08:13:04;;;;;;;8.35;5.50;;;19.50;94.70;;;;;;5059044;28;20218;-79
2021/04/01 08:15:37;;;;;;;5.40;4.88;;;19.70;94.40;;;;;;5059182;28;20279;-78
2021/04/01 08:18:13;;;;;;;8.95;5.93;;;19.90;94.20;;;;;;5055922;28;20586;-79
2021/04/01 08:20:42;;;;;;;7.40;5.53;;;20.00;93.70;;;;;;5060870;28;20650;-79
2021/04/01 08:23:16;;;;;;;8.30;5.60;;;20.00;93.80;;;;;;5061923;28;20695;-79
2021/04/01 08:25:47;;;;;;;7.57;5.88;;;19.90;93.60;;;;;;5061133;28;20534;-78
2021/04/01 08:31:25;;;;;;;11.35;5.70;;;20.10;93.40;;;;;;5057819;28;20242;-79
2021/04/01 08:36:41;;;;;;;9.23;5.95;;;19.90;92.90;;;;;;5046643;28;20198;-80
2021/04/01 08:39:08;;;;;;;11.82;5.60;;;19.90;93.50;;;;;;5066901;28;20198;-79
2021/04/01 08:42:11;;;;;;;8.15;5.40;;;20.20;93.50;;;;;;5066848;28;20199;-80
2021/04/01 08:45:01;;;;;;;8.40;5.50;;;20.50;93.00;;;;;;5068028;28;20225;-78
2021/04/01 08:47:35;;;;;;;5.97;5.18;;;20.80;91.90;;;;;;5064596;28;20533;-79
2021/04/01 08:50:20;;;;;;;5.55;4.93;;;20.80;92.00;;;;;;5069566;28;20318;-80
2021/04/01 08:53:11;;;;;;;8.40;5.57;;;20.80;92.20;;;;;;5073087;28;20190;-80
2021/04/01 08:55:42;;;;;;;8.57;5.25;;;20.70;91.20;;;;;;5069244;28;20225;-80
2021/04/01 08:58:19;;;;;;;6.53;5.80;;;20.40;91.50;;;;;;5072201;28;20205;-79
2021/04/01 09:00:47;;;;;;;7.40;5.40;;;20.50;91.70;;;;;;5065917;28;20586;-80
2021/04/01 09:03:17;;;;;;;6.95;5.55;;;20.40;91.60;;;;;;5072766;28;20244;-80
2021/04/01 09:05:53;;;;;;;9.70;5.60;;;20.20;91.60;;;;;;5071795;28;20687;-79
2021/04/01 09:08:25;;;;;;;7.80;5.15;;;20.30;91.60;;;;;;5068087;28;20396;-80
2021/04/01 09:10:54;;;;;;;7.57;5.68;;;20.40;91.80;;;;;;5069450;28;20225;-80
2021/04/01 09:13:27;;;;;;;9.00;5.07;;;20.50;91.60;;;;;;5072433;28;20195;-80
2021/04/01 09:15:57;;;;;;;10.35;6.00;;;20.30;91.80;;;;;;5072382;28;20218;-79
2021/04/01 09:18:27;;;;;;;9.45;5.70;;;20.30;91.70;;;;;;5067718;28;20190;-79
2021/04/01 09:20:55;;;;;;;9.50;5.97;;;20.10;92.20;;;;;;5065206;28;20736;-79
2021/04/01 09:23:33;;;;;;;9.43;5.53;;;20.20;92.40;;;;;;5071880;28;20214;-79
2021/04/01 09:26:00;;;;;;;10.02;5.97;;;20.30;92.50;;;;;;5068829;28;20222;-80
2021/04/01 09:28:32;;;;;;;8.18;6.05;;;20.40;91.90;;;;;;5073021;28;20248;-79
2021/04/01 09:31:01;;;;;;;7.38;5.20;;;20.50;91.80;;;;;;5072334;28;20581;-80
2021/04/01 09:33:30;;;;;;;5.93;5.15;;;20.70;91.50;;;;;;5073523;28;20652;-80
2021/04/01 09:36:07;;;;;;;9.23;5.38;;;21.00;91.40;;;;;;5072496;28;20222;-80
2021/04/01 09:38:39;;;;;;;10.20;5.53;;;21.30;91.50;;;;;;5066509;28;20654;-80
2021/04/01 09:41:07;;;;;;;9.10;5.03;;;21.60;90.70;;;;;;5072588;28;20221;-79
2021/04/01 09:43:34;;;;;;;7.93;5.75;;;21.70;90.70;;;;;;5073543;28;20280;-81
2021/04/01 09:46:12;;;;;;;7.93;4.88;;;22.10;90.40;;;;;;5077024;28;20221;-80
2021/04/01 09:48:46;;;;;;;8.77;5.30;;;22.30;90.70;;;;;;5077985;28;20213;-79
2021/04/01 09:51:17;;;;;;;6.90;4.70;;;22.60;90.00;;;;;;5079642;28;20357;-80
2021/04/01 09:53:51;;;;;;;6.78;4.38;;;22.70;88.10;;;;;;5072622;28;20206;-80
2021/04/01 09:56:23;;;;;;;5.80;4.35;;;22.70;86.50;;;;;;5072741;28;20709;-80
2021/04/01 09:58:52;;;;;;;7.35;4.68;;;22.80;87.50;;;;;;5078713;28;20202;-80
2021/04/01 10:01:30;;;;;;;8.20;4.70;;;22.90;85.50;;;;;;5076962;28;20233;-79
2021/04/01 10:04:05;;;;;;;5.60;4.18;;;22.50;84.10;;;;;;5076331;28;20278;-80
2021/04/01 10:06:38;;;;;;;8.70;5.00;;;22.30;84.90;;;;;;5075232;28;20399;-80
2021/04/01 10:09:13;;;;;;;10.45;5.60;;;22.10;85.50;;;;;;5080716;28;20294;-80
2021/04/01 10:11:46;;;;;;;5.28;4.68;;;21.90;86.00;;;;;;5078464;28;20277;-80
2021/04/01 10:14:14;;;;;;;6.50;4.25;;;21.90;87.60;;;;;;5073184;28;20263;-80
2021/04/01 10:16:58;;;;;;;6.35;3.92;;;22.10;84.90;;;;;;5080404;28;20214;-80
2021/04/01 10:19:28;;;;;;;6.75;4.10;;;22.10;83.30;;;;;;5075995;28;20193;-79
2021/04/01 10:21:55;;;;;;;6.65;4.63;;;22.20;82.50;;;;;;5078105;28;20338;-80
2021/04/01 10:24:28;;;;;;;6.38;4.35;;;22.20;82.50;;;;;;5073964;28;20203;-79
2021/04/01 10:27:03;;;;;;;5.68;4.35;;;22.30;83.90;;;;;;5076811;28;20186;-80
2021/04/01 10:29:40;;;;;;;7.18;4.32;;;22.50;83.70;;;;;;5078663;28;20764;-79
2021/04/01 10:32:09;;;;;;;3.92;3.53;;;22.60;84.50;;;;;;5081665;28;20190;-80
2021/04/01 10:34:43;;;;;;;6.93;4.28;;;22.80;84.50;;;;;;5083246;28;20220;-79
2021/04/01 10:37:12;;;;;;;6.90;4.65;;;23.00;84.10;;;;;;5084419;28;20280;-81
2021/04/01 10:39:40;;;;;;;8.13;4.57;;;23.40;84.60;;;;;;5079667;28;20209;-80
2021/04/01 10:42:08;;;;;;;5.80;3.95;;;23.50;82.50;;;;;;5069396;28;20194;-80
2021/04/01 10:44:36;;;;;;;5.95;3.92;;;23.60;82.80;;;;;;5076266;28;20198;-79
2021/04/01 10:47:04;;;;;;;5.97;4.47;;;23.90;82.60;;;;;;5075344;28;20703;-81
2021/04/01 10:49:33;;;;;;;5.10;3.90;;;24.20;81.90;;;;;;5050189;28;20264;-80
2021/04/01 10:52:02;;;;;;;5.97;4.40;;;24.30;81.90;;;;;;5087673;28;20205;-81
2021/04/01 10:57:05;;;;;;;6.40;4.53;;;24.20;80.80;;;;;;5047948;28;20585;-75
2021/04/01 10:59:37;;;;;;;7.70;4.85;;;24.10;81.00;;;;;;5044911;28;20852;-74
2021/04/01 11:02:11;;;;;;;5.85;3.80;;;23.80;80.90;;;;;;5044950;28;20665;-76
2021/04/01 11:04:40;;;;;;;7.15;3.92;;;23.70;80.40;;;;;;5044307;28;20595;-75
2021/04/01 11:07:09;;;;;;;7.03;4.40;;;23.80;81.20;;;;;;5045276;28;20715;-76
2021/04/01 11:09:36;;;;;;;5.57;3.78;;;24.10;80.20;;;;;;5043900;28;20284;-74
2021/04/01 11:12:14;;;;;;;9.48;4.18;;;24.40;80.20;;;;;;5040504;28;20191;-75
2021/04/01 11:14:43;;;;;;;5.70;4.15;;;24.70;80.10;;;;;;5057262;22;20867;-68
2021/04/01 11:17:13;;;;;;;4.38;3.65;;;24.70;78.00;;;;;;5038035;28;20226;-68
2021/04/01 11:19:41;;;;;;;5.10;3.67;;;24.80;78.20;;;;;;5039708;28;20195;-68
2021/04/01 11:22:09;;;;;;;5.50;3.72;;;25.10;78.00;;;;;;5041021;28;20214;-67
2021/04/01 11:24:37;;;;;;;5.50;3.53;;;25.10;77.20;;;;;;5042431;28;21037;-69
2021/04/01 11:27:09;;;;;;;6.25;3.50;;;25.00;77.40;;;;;;5043126;28;20259;-68
2021/04/01 11:29:37;;;;;;;5.25;3.72;;;25.00;76.80;;;;;;5041063;28;20520;-68
2021/04/01 11:32:19;;;;;;;6.25;3.50;;;25.00;76.90;;;;;;5041688;28;20199;-69
2021/04/01 11:34:48;;;;;;;4.38;3.63;;;25.00;76.40;;;;;;5042252;28;20226;-69
2021/04/01 11:37:18;;;;;;;9.75;3.60;;;24.90;74.30;;;;;;5039007;28;20227;-69
2021/04/01 11:39:45;;;;;;;6.03;3.53;;;24.80;74.70;;;;;;5045566;28;20203;-69
2021/04/01 11:42:13;;;;;;;3.65;3.28;;;24.80;74.90;;;;;;5042448;28;20195;-69
2021/04/01 11:44:41;;;;;;;5.25;2.97;;;25.10;74.40;;;;;;5040977;28;20221;-69
2021/04/01 11:47:19;;;;;;;4.55;3.22;;;25.20;74.50;;;;;;5047164;28;20344;-69
2021/04/01 11:49:47;;;;;;;4.22;2.95;;;25.50;74.30;;;;;;5041467;28;20218;-69
2021/04/01 11:52:17;;;;;;;4.75;3.20;;;25.60;73.00;;;;;;5041364;28;20209;-69
2021/04/01 11:54:44;;;;;;;5.63;3.47;;;25.70;73.90;;;;;;5044782;28;20316;-69
2021/04/01 11:57:26;;;;;;;4.57;3.63;;;25.90;73.50;;;;;;5048155;28;20199;-69
2021/04/01 12:00:01;;;;;;;3.90;3.35;;;25.90;72.10;;;;;;5047608;28;20190;-68
2021/04/01 12:02:29;;;;;;;5.57;3.10;;;26.00;73.00;;;;;;5045484;28;20267;-68
2021/04/01 12:04:59;;;;;;;4.22;3.17;;;26.10;72.90;;;;;;5047409;28;20615;-68
2021/04/01 12:07:29;;;;;;;4.05;3.00;;;26.40;73.60;;;;;;5046632;28;20217;-69
2021/04/01 12:09:57;;;;;;;6.75;3.33;;;26.80;73.50;;;;;;5043622;28;20223;-68
2021/04/01 12:12:28;;;;;;;5.35;3.22;;;26.90;69.20;;;;;;5042256;28;20487;-69
2021/04/01 12:14:54;;;;;;;5.05;3.10;;;26.70;69.00;;;;;;5040065;28;20231;-70
2021/04/01 12:17:35;;;;;;;4.05;3.13;;;26.40;68.50;;;;;;5046132;28;20199;-68
2021/04/01 12:20:04;;;;;;;5.20;2.80;;;26.40;65.20;;;;;;5042683;28;20218;-69
2021/04/01 12:22:33;;;;;;;5.72;2.85;;;26.40;67.30;;;;;;5044477;28;20203;-68
2021/04/01 12:25:00;;;;;;;5.38;2.80;;;26.50;67.80;;;;;;5044543;28;20716;-69
2021/04/01 12:27:31;;;;;;;5.28;3.47;;;26.70;68.30;;;;;;5045266;28;20202;-69
2021/04/01 12:29:58;;;;;;;5.60;2.80;;;26.70;66.00;;;;;;5046506;28;20199;-69
2021/04/01 12:32:27;;;;;;;4.43;2.97;;;26.60;67.20;;;;;;5046018;28;20234;-69
2021/04/01 12:35:10;;;;;;;4.00;3.05;;;26.30;66.20;;;;;;5040030;28;20232;-69
2021/04/01 12:37:39;;;;;;;6.43;3.30;;;26.10;66.40;;;;;;5042413;28;20563;-69
2021/04/01 12:40:17;;;;;;;5.93;2.80;;;26.20;67.10;;;;;;5043029;28;20223;-69
2021/04/01 12:42:44;;;;;;;3.35;2.55;;;26.40;67.60;;;;;;5048357;28;20203;-69
2021/04/01 12:45:17;;;;;;;4.57;3.25;;;26.50;68.00;;;;;;5043887;28;20236;-67
2021/04/01 12:47:43;;;;;;;7.00;3.45;;;26.60;67.00;;;;;;5041178;28;22167;-68
2021/04/01 12:50:11;;;;;;;5.13;3.00;;;26.40;66.90;;;;;;5042251;28;20226;-67
2021/04/01 12:52:46;;;;;;;5.97;3.00;;;26.30;67.20;;;;;;5041249;28;20202;-68
2021/04/01 12:55:25;;;;;;;5.63;3.10;;;26.50;67.00;;;;;;5043165;28;20249;-68
2021/04/01 12:57:52;;;;;;;7.10;2.97;;;26.60;66.00;;;;;;5040343;28;20673;-69
2021/04/01 13:00:38;;;;;;;4.95;2.85;;;26.80;66.90;;;;;;5039117;28;20260;-68
2021/04/01 13:03:08;;;;;;;3.50;2.58;;;27.00;67.10;;;;;;5038873;28;20290;-68
2021/04/01 13:05:37;;;;;;;4.20;3.10;;;27.10;66.20;;;;;;5040206;28;20234;-69
2021/04/01 13:11:00;;;;;;;5.68;3.05;;;26.90;66.70;;;;;;5043251;28;20320;-68
2021/04/01 13:13:27;;;;;;;4.05;2.67;;;27.00;66.00;;;;;;5045400;28;20243;-68
2021/04/01 13:15:53;;;;;;;6.25;3.30;;;27.00;66.60;;;;;;5046737;28;20846;-68
2021/04/01 13:18:20;;;;;;;3.38;2.60;;;27.10;66.30;;;;;;5048136;28;20195;-68
2021/04/01 13:20:47;;;;;;;4.35;2.75;;;27.20;66.40;;;;;;5041655;28;20218;-71
2021/04/01 13:26:15;;;;;;;3.67;2.28;;;27.30;66.40;;;;;;5013014;28;20588;-69
2021/04/01 13:28:43;;;;;;;3.58;2.58;;;27.40;64.70;;;;;;5038260;28;20710;-68
2021/04/01 13:31:23;;;;;;;2.95;2.60;;;27.50;64.10;;;;;;5037413;28;20221;-69
2021/04/01 13:33:55;;;;;;;3.10;2.28;;;27.40;62.60;;;;;;5039021;28;20209;-69
2021/04/01 13:36:28;;;;;;;4.70;2.28;;;27.30;63.20;;;;;;5038220;28;20211;-69
2021/04/01 13:38:57;;;;;;;4.65;2.25;;;27.30;62.80;;;;;;5040995;28;20236;-68
2021/04/01 13:41:34;;;;;;;5.38;2.00;;;27.20;63.30;;;;;;5037733;28;20222;-68
2021/04/01 13:44:01;;;;;;;4.65;2.33;;;27.10;61.80;;;;;;5036357;28;20576;-68
2021/04/01 13:46:31;;;;;;;7.13;2.85;;;27.10;62.20;;;;;;5038422;28;20265;-68
2021/04/01 13:49:01;;;;;;;2.70;2.25;;;27.00;62.30;;;;;;5038066;28;20692;-68
2021/04/01 13:51:30;;;;;;;3.58;2.30;;;27.00;63.10;;;;;;5033197;28;20225;-67
2021/04/01 13:56:57;;;;;;;5.93;2.15;;;27.10;62.50;;;;;;5024914;28;20587;-68
2021/04/01 13:59:29;;;;;;;4.80;2.10;;;27.10;62.00;;;;;;5037063;28;20290;-68